METAR Data

Data at: 1133 UTC 21 Apr 2021

METAR for:CYFC (Fredericton Intl, NB, CN)
Text:CYFC 211121Z AUTO 22002KT 9SM FEW042 OVC081 05/02 A2989 RMK SLP123
Temperature: 5.0°C ( 41°F)
Dewpoint: 2.0°C ( 36°F) [RH = 81%]
Pressure (altimeter):29.89 inches Hg (1012.3 mb) [Sea level pressure: 1012.3 mb]
Winds:from the SW (220 degrees) at 2 MPH (2 knots; 1.0 m/s)
Visibility: 9 sm ( 14 km)
Ceiling:8100 feet AGL
Clouds: few clouds at 4200 feet AGL, overcast cloud deck at 8100 feet AGL